createdAt,value
2023-10-29T00:01:28.255Z,99941.72
2023-10-29T00:03:56.024Z,99937.56
2023-10-29T00:06:22.708Z,99946.13
2023-10-29T00:08:49.286Z,99937.63
2023-10-29T00:11:15.795Z,99932.47
2023-10-29T00:13:42.319Z,99937.72
2023-10-29T00:16:08.839Z,99931.72
2023-10-29T00:18:35.361Z,99929.16
2023-10-29T00:21:01.844Z,99922.28
2023-10-29T00:23:28.373Z,99921.44
2023-10-29T00:25:54.902Z,99917.13
2023-10-29T00:28:22.013Z,99906.94
2023-10-29T00:30:48.554Z,99915.44
2023-10-29T00:33:15.221Z,99907.69
2023-10-29T00:35:41.955Z,99911.16
2023-10-29T00:38:08.674Z,99916.28
2023-10-29T00:40:41.521Z,99908.66
2023-10-29T00:43:08.050Z,99912.88
2023-10-29T00:45:34.581Z,99907.03
2023-10-29T00:48:01.551Z,99910.50
2023-10-29T00:50:28.563Z,99904.50
2023-10-29T00:52:55.321Z,99909.66
2023-10-29T00:55:21.882Z,99909.75
2023-10-29T00:57:48.396Z,99905.53
2023-10-29T01:00:19.021Z,99901.22
2023-10-29T01:02:45.849Z,99901.22
2023-10-29T01:05:12.394Z,99900.47
2023-10-29T01:07:39.123Z,99900.56
2023-10-29T01:10:06.198Z,99892.75
2023-10-29T01:12:32.693Z,99880.78
2023-10-29T01:15:00.057Z,99885.94
2023-10-29T01:17:26.638Z,99888.50
2023-10-29T01:19:53.201Z,99890.19
2023-10-29T01:22:19.804Z,99886.78
2023-10-29T01:24:47.035Z,99877.31
2023-10-29T01:27:13.764Z,99872.19
2023-10-29T01:29:40.332Z,99868.69
2023-10-29T01:32:07.115Z,99862.69
2023-10-29T01:34:34.304Z,99860.13
2023-10-29T01:37:00.827Z,99856.56
2023-10-29T01:39:27.354Z,99858.41
2023-10-29T01:41:57.085Z,99856.56
2023-10-29T01:44:24.845Z,99856.56
2023-10-29T01:46:51.571Z,99855.63
2023-10-29T01:49:18.096Z,99854.84
2023-10-29T01:51:44.585Z,99852.16
2023-10-29T01:54:11.131Z,99847.03
2023-10-29T01:56:39.294Z,99845.19
2023-10-29T01:59:05.866Z,99843.44
2023-10-29T02:01:32.559Z,99843.44
2023-10-29T02:03:59.409Z,99833.09
2023-10-29T02:06:25.984Z,99820.22
2023-10-29T02:08:52.476Z,99823.53
2023-10-29T02:11:19.008Z,99829.44
2023-10-29T02:13:45.504Z,99836.34
2023-10-29T02:16:12.085Z,99830.16
2023-10-29T02:18:39.413Z,99846.63
2023-10-29T02:21:06.979Z,99845.78
2023-10-29T02:23:35.373Z,99844.94
2023-10-29T02:26:02.102Z,99838.16
2023-10-29T02:28:28.630Z,99838.22
2023-10-29T02:30:55.211Z,99842.44
2023-10-29T02:33:22.025Z,99846.63
2023-10-29T02:35:50.362Z,99843.97
2023-10-29T02:38:19.269Z,99833.66
2023-10-29T02:40:45.844Z,99829.34
2023-10-29T02:43:12.423Z,99835.31
2023-10-29T02:45:40.580Z,99833.66
2023-10-29T02:48:07.174Z,99850.75
2023-10-29T02:50:34.264Z,99847.28
2023-10-29T02:53:00.794Z,99849.09
2023-10-29T02:55:27.320Z,99858.56
2023-10-29T02:57:53.889Z,99850.75
2023-10-29T03:00:20.440Z,99851.50
2023-10-29T03:02:48.029Z,99860.13
2023-10-29T03:05:14.653Z,99848.09
2023-10-29T03:07:41.183Z,99848.91
2023-10-29T03:10:07.917Z,99844.78
2023-10-29T03:12:34.406Z,99845.59
2023-10-29T03:15:01.848Z,99838.81
2023-10-29T03:17:28.473Z,99836.25
2023-10-29T03:19:55.005Z,99815.81
2023-10-29T03:22:21.810Z,99816.56
2023-10-29T03:24:48.556Z,99818.25
2023-10-29T03:27:15.286Z,99807.94
2023-10-29T03:29:41.836Z,99814.72
2023-10-29T03:32:08.381Z,99806.94
2023-10-29T03:34:34.859Z,99801.69
2023-10-29T03:37:01.396Z,99798.31
2023-10-29T03:39:30.277Z,99794.06
2023-10-29T03:41:57.100Z,99788.91
2023-10-29T03:44:23.675Z,99781.19
2023-10-29T03:46:51.739Z,99780.47
2023-10-29T03:49:21.708Z,99777.97
2023-10-29T03:51:48.635Z,99771.94
2023-10-29T03:54:15.434Z,99773.66
2023-10-29T03:56:41.972Z,99768.53
2023-10-29T03:59:09.491Z,99772.75
2023-10-29T04:01:36.384Z,99780.31
2023-10-29T04:04:04.428Z,99781.09
2023-10-29T04:06:32.049Z,99787.00
2023-10-29T04:08:58.586Z,99774.88
2023-10-29T04:11:25.165Z,99780.75
2023-10-29T04:13:51.654Z,99785.72
2023-10-29T04:16:18.630Z,99767.78
2023-10-29T04:18:45.187Z,99773.78
2023-10-29T04:21:11.848Z,99775.50
2023-10-29T04:23:38.534Z,99770.19
2023-10-29T04:26:05.048Z,99763.19
2023-10-29T04:28:31.538Z,99762.31
2023-10-29T04:30:58.301Z,99751.91
2023-10-29T04:33:25.300Z,99730.38
2023-10-29T04:35:51.917Z,99732.97
2023-10-29T04:38:18.525Z,99720.09
2023-10-29T04:40:45.411Z,99710.53
2023-10-29T04:43:12.004Z,99704.56
2023-10-29T04:45:38.523Z,99707.88
2023-10-29T04:48:05.286Z,99695.94
2023-10-29T04:50:32.256Z,99695.75
2023-10-29T04:52:59.377Z,99682.88
2023-10-29T04:55:26.170Z,99676.78
2023-10-29T04:57:52.855Z,99678.56
2023-10-29T05:00:19.331Z,99670.66
2023-10-29T05:02:45.960Z,99686.81
2023-10-29T05:05:12.616Z,99668.72
2023-10-29T05:07:39.147Z,99661.00
2023-10-29T05:10:06.478Z,99661.81
2023-10-29T05:12:33.047Z,99669.53
2023-10-29T05:14:59.546Z,99673.56
2023-10-29T05:17:26.058Z,99662.34
2023-10-29T05:19:52.724Z,99674.13
2023-10-29T05:22:19.224Z,99662.91
2023-10-29T05:24:45.906Z,99653.44
2023-10-29T05:27:12.542Z,99656.72
2023-10-29T05:29:39.104Z,99637.88
2023-10-29T05:32:06.304Z,99639.53
2023-10-29T05:34:32.788Z,99638.63
2023-10-29T05:36:59.289Z,99641.91
2023-10-29T05:39:25.784Z,99634.91
2023-10-29T05:41:52.302Z,99638.31
2023-10-29T05:44:18.826Z,99636.56
2023-10-29T05:46:45.309Z,99632.22
2023-10-29T05:49:11.890Z,99629.66
2023-10-29T05:51:38.384Z,99627.09
2023-10-29T05:54:05.021Z,99645.94
2023-10-29T05:56:31.571Z,99648.50
2023-10-29T05:58:58.129Z,99651.81
2023-10-29T06:01:24.814Z,99652.44
2023-10-29T06:03:51.548Z,99643.72
2023-10-29T06:06:18.177Z,99640.22
2023-10-29T06:08:44.784Z,99634.13
2023-10-29T06:11:11.529Z,99638.28
2023-10-29T06:13:38.003Z,99641.56
2023-10-29T06:16:09.344Z,99643.94
2023-10-29T06:18:36.761Z,99642.94
2023-10-29T06:21:04.260Z,99646.22
2023-10-29T06:23:30.800Z,99648.63
2023-10-29T06:25:57.327Z,99639.94
2023-10-29T06:28:23.831Z,99636.47
2023-10-29T06:30:50.540Z,99636.47
2023-10-29T06:33:17.236Z,99636.47
2023-10-29T06:35:43.832Z,99647.56
2023-10-29T06:38:10.340Z,99649.25
2023-10-29T06:40:36.861Z,99648.22
2023-10-29T06:43:04.706Z,99657.59
2023-10-29T06:45:31.329Z,99659.25
2023-10-29T06:47:57.868Z,99665.13
2023-10-29T06:50:24.457Z,99654.81
2023-10-29T06:52:51.074Z,99649.66
2023-10-29T06:55:17.594Z,99648.03
2023-10-29T06:57:44.124Z,99644.63
2023-10-29T07:00:13.571Z,99642.88
2023-10-29T07:02:40.206Z,99642.69
2023-10-29T07:05:07.657Z,99640.81
2023-10-29T07:07:35.957Z,99634.00
2023-10-29T07:10:05.163Z,99641.63
2023-10-29T07:12:32.792Z,99635.56
2023-10-29T07:14:59.772Z,99645.56
2023-10-29T07:17:26.359Z,99638.66
2023-10-29T07:19:53.772Z,99630.09
2023-10-29T07:22:20.275Z,99636.94
2023-10-29T07:24:46.922Z,99636.94
2023-10-29T07:27:13.572Z,99632.69
2023-10-29T07:29:40.075Z,99636.94
2023-10-29T07:32:06.688Z,99624.16
2023-10-29T07:34:33.272Z,99634.47
2023-10-29T07:36:59.775Z,99630.09
2023-10-29T07:39:26.918Z,99633.63
2023-10-29T07:41:53.507Z,99636.19
2023-10-29T07:44:21.111Z,99631.94
2023-10-29T07:46:49.027Z,99656.06
2023-10-29T07:49:15.532Z,99651.03
2023-10-29T07:51:42.059Z,99630.53
2023-10-29T07:54:08.619Z,99645.97
2023-10-29T07:56:35.204Z,99626.28
2023-10-29T07:59:01.771Z,99618.75
2023-10-29T08:01:29.115Z,99599.78
2023-10-29T08:03:58.211Z,99611.88
2023-10-29T08:06:24.785Z,99603.09
2023-10-29T08:08:51.541Z,99606.41
2023-10-29T08:11:22.147Z,99620.22
2023-10-29T08:13:49.173Z,99621.66
2023-10-29T08:16:15.934Z,99620.75
2023-10-29T08:18:42.855Z,99623.22
2023-10-29T08:21:09.611Z,99622.28
2023-10-29T08:23:36.357Z,99623.53
2023-10-29T08:26:03.084Z,99619.69
2023-10-29T08:28:29.601Z,99615.66
2023-10-29T08:30:56.284Z,99624.28
2023-10-29T08:33:22.899Z,99608.84
2023-10-29T08:35:49.899Z,99638.84
2023-10-29T08:38:16.496Z,99632.56
2023-10-29T08:40:43.200Z,99625.91
2023-10-29T08:43:09.821Z,99614.25
2023-10-29T08:45:42.218Z,99615.50
2023-10-29T08:48:09.703Z,99611.59
2023-10-29T08:50:36.313Z,99610.44
2023-10-29T08:53:02.936Z,99608.50
2023-10-29T08:55:29.835Z,99602.31
2023-10-29T08:57:56.493Z,99617.56
2023-10-29T09:00:23.022Z,99593.47
2023-10-29T09:02:49.699Z,99610.56
2023-10-29T09:05:16.393Z,99591.59
2023-10-29T09:07:43.005Z,99603.59
2023-10-29T09:10:09.943Z,99579.34
2023-10-29T09:12:36.480Z,99582.75
2023-10-29T09:15:03.103Z,99588.53
2023-10-29T09:17:29.990Z,99578.09
2023-10-29T09:19:56.610Z,99604.81
2023-10-29T09:22:23.362Z,99595.25
2023-10-29T09:24:50.102Z,99608.94
2023-10-29T09:27:16.769Z,99617.50
2023-10-29T09:29:43.349Z,99623.16
2023-10-29T09:32:09.856Z,99634.00
2023-10-29T09:34:36.393Z,99625.88
2023-10-29T09:37:02.880Z,99630.81
2023-10-29T09:39:29.397Z,99636.56
2023-10-29T09:42:01.542Z,99648.34
2023-10-29T09:44:30.477Z,99648.25
2023-10-29T09:47:04.479Z,99635.13
2023-10-29T09:49:31.241Z,99622.94
2023-10-29T09:51:57.993Z,99641.72
2023-10-29T09:54:24.611Z,99643.38
2023-10-29T09:56:53.471Z,99649.97
2023-10-29T09:59:20.012Z,99661.97
2023-10-29T10:01:58.129Z,99651.84
2023-10-29T10:04:25.715Z,99646.88
2023-10-29T10:06:52.773Z,99650.50
2023-10-29T10:09:19.353Z,99655.66
2023-10-29T10:11:45.974Z,99657.72
2023-10-29T10:14:26.800Z,99659.78
2023-10-29T10:17:10.050Z,99687.84
2023-10-29T10:19:37.534Z,99690.41
2023-10-29T10:22:05.345Z,99663.88
2023-10-29T10:24:49.891Z,99655.25
2023-10-29T10:27:16.589Z,99645.72
2023-10-29T10:29:43.174Z,99649.75
2023-10-29T10:32:10.098Z,99649.13
2023-10-29T10:34:38.886Z,99646.13
2023-10-29T10:37:05.589Z,99647.41
2023-10-29T10:39:32.801Z,99660.13
2023-10-29T10:42:01.720Z,99669.50
2023-10-29T10:44:30.440Z,99677.16
2023-10-29T10:46:59.404Z,99659.69
2023-10-29T10:49:27.186Z,99670.75
2023-10-29T10:51:56.169Z,99661.03
2023-10-29T10:54:23.550Z,99652.13
2023-10-29T10:56:51.409Z,99645.91
2023-10-29T10:59:17.971Z,99631.03
2023-10-29T11:01:45.054Z,99630.72
2023-10-29T11:04:11.807Z,99627.66
2023-10-29T11:06:39.968Z,99626.34
2023-10-29T11:09:13.281Z,99621.44
2023-10-29T11:11:51.968Z,99631.31
2023-10-29T11:14:19.220Z,99631.56
2023-10-29T11:16:59.261Z,99635.47
2023-10-29T11:19:50.933Z,99620.69
2023-10-29T11:22:30.280Z,99621.28
2023-10-29T11:25:06.382Z,99619.31
2023-10-29T11:27:41.740Z,99621.66
2023-10-29T11:30:11.971Z,99626.75
2023-10-29T11:32:38.554Z,99622.38
2023-10-29T11:35:23.939Z,99633.31
2023-10-29T11:37:53.220Z,99632.28
2023-10-29T11:40:25.980Z,99633.59
2023-10-29T11:42:53.450Z,99636.66
2023-10-29T11:45:29.448Z,99638.03
2023-10-29T11:48:08.232Z,99626.53
2023-10-29T11:50:34.794Z,99635.97
2023-10-29T11:53:01.427Z,99637.84
2023-10-29T11:55:28.761Z,99635.00
2023-10-29T11:57:55.800Z,99637.84
2023-10-29T12:00:24.950Z,99642.69
2023-10-29T12:02:51.756Z,99653.63
2023-10-29T12:05:18.383Z,99637.63
2023-10-29T12:07:45.076Z,99632.13
2023-10-29T12:10:11.656Z,99633.44
2023-10-29T12:12:39.907Z,99652.00
2023-10-29T12:15:14.199Z,99641.19
2023-10-29T12:17:45.108Z,99634.75
2023-10-29T12:20:24.174Z,99647.09
2023-10-29T12:22:56.054Z,99647.22
2023-10-29T12:25:23.036Z,99640.50
2023-10-29T12:27:50.842Z,99632.63
2023-10-29T12:30:43.463Z,99634.75
2023-10-29T12:34:05.914Z,99636.50
2023-10-29T12:36:33.433Z,99637.78
2023-10-29T12:38:59.957Z,99640.94
2023-10-29T12:41:31.907Z,99643.44
2023-10-29T12:43:58.755Z,99644.13
2023-10-29T12:46:26.709Z,99633.53
2023-10-29T12:49:02.255Z,99626.34
2023-10-29T12:51:33.559Z,99622.69
2023-10-29T12:54:12.589Z,99611.41
2023-10-29T12:56:55.132Z,99614.78
2023-10-29T12:59:22.771Z,99616.44
2023-10-29T13:01:56.629Z,99621.63
2023-10-29T13:04:24.349Z,99613.16
2023-10-29T13:06:51.463Z,99625.16
2023-10-29T13:09:22.074Z,99629.41
2023-10-29T13:11:49.870Z,99619.03
2023-10-29T13:14:16.470Z,99629.28
2023-10-29T13:16:43.192Z,99633.88
2023-10-29T13:19:12.077Z,99633.88
2023-10-29T13:21:39.127Z,99626.09
2023-10-29T13:24:06.891Z,99621.88
2023-10-29T13:26:33.507Z,99621.88
2023-10-29T13:29:00.008Z,99620.09
2023-10-29T13:31:28.141Z,99628.69
2023-10-29T13:33:55.556Z,99618.34
2023-10-29T13:36:23.619Z,99618.34
2023-10-29T13:38:50.608Z,99631.28
2023-10-29T13:41:17.102Z,99616.69
2023-10-29T13:43:43.717Z,99620.22
2023-10-29T13:46:10.234Z,99622.09
2023-10-29T13:48:36.792Z,99610.94
2023-10-29T13:51:05.852Z,99605.84
2023-10-29T13:53:33.207Z,99614.47
2023-10-29T13:56:10.315Z,99623.97
2023-10-29T13:58:37.220Z,99611.03
2023-10-29T14:01:04.518Z,99610.94
2023-10-29T14:03:31.347Z,99596.19
2023-10-29T14:05:58.052Z,99591.84
2023-10-29T14:08:27.361Z,99591.84
2023-10-29T14:10:53.844Z,99588.44
2023-10-29T14:13:20.354Z,99599.75
2023-10-29T14:15:46.851Z,99589.38
2023-10-29T14:18:14.088Z,99592.91
2023-10-29T14:20:40.824Z,99590.44
2023-10-29T14:23:07.336Z,99597.28
2023-10-29T14:25:33.822Z,99587.97
2023-10-29T14:28:02.094Z,99596.56
2023-10-29T14:30:29.250Z,99582.53
2023-10-29T14:32:55.876Z,99576.56
2023-10-29T14:35:22.436Z,99588.69
2023-10-29T14:37:51.850Z,99595.75
2023-10-29T14:40:18.341Z,99599.41
2023-10-29T14:42:48.297Z,99604.59
2023-10-29T14:45:16.454Z,99616.59
2023-10-29T14:47:43.966Z,99601.06
2023-10-29T14:50:11.557Z,99605.41
2023-10-29T14:52:38.433Z,99607.88
2023-10-29T14:55:06.953Z,99610.44
2023-10-29T14:57:33.602Z,99605.41
2023-10-29T15:00:01.060Z,99619.19
2023-10-29T15:02:28.323Z,99608.94
2023-10-29T15:04:55.858Z,99612.47
2023-10-29T15:07:22.600Z,99602.94
2023-10-29T15:09:49.182Z,99612.47
2023-10-29T15:12:15.824Z,99599.50
2023-10-29T15:14:49.749Z,99597.88
2023-10-29T15:17:20.794Z,99595.28
2023-10-29T15:19:55.318Z,99597.63
2023-10-29T15:22:21.945Z,99598.72
2023-10-29T15:24:49.074Z,99612.72
2023-10-29T15:27:16.025Z,99617.88
2023-10-29T15:29:43.884Z,99619.75
2023-10-29T15:32:10.617Z,99612.00
2023-10-29T15:34:37.110Z,99603.44
2023-10-29T15:37:03.712Z,99602.34
2023-10-29T15:39:31.659Z,99605.91
2023-10-29T15:41:58.548Z,99612.72
2023-10-29T15:44:25.095Z,99608.50
2023-10-29T15:46:51.569Z,99614.59
2023-10-29T15:49:18.328Z,99611.88
2023-10-29T15:51:44.834Z,99620.72
2023-10-29T15:54:11.417Z,99624.94
2023-10-29T15:56:38.063Z,99631.31
2023-10-29T15:59:10.218Z,99628.75
2023-10-29T16:01:37.119Z,99626.94
2023-10-29T16:04:04.065Z,99630.63
2023-10-29T16:06:30.571Z,99627.56
2023-10-29T16:08:57.078Z,99611.44
2023-10-29T16:11:25.246Z,99599.78
2023-10-29T16:13:51.797Z,99594.97
2023-10-29T16:16:18.575Z,99594.28
2023-10-29T16:18:45.104Z,99573.91
2023-10-29T16:21:14.222Z,99571.44
2023-10-29T16:23:41.561Z,99569.91
2023-10-29T16:26:08.090Z,99563.19
2023-10-29T16:28:34.580Z,99563.31
2023-10-29T16:31:01.078Z,99546.97
2023-10-29T16:33:27.869Z,99550.50
2023-10-29T16:35:56.430Z,99548.03
2023-10-29T16:38:23.104Z,99540.50
2023-10-29T16:40:51.391Z,99545.78
2023-10-29T16:43:17.887Z,99556.38
2023-10-29T16:45:45.759Z,99559.09
2023-10-29T16:48:12.425Z,99563.56
2023-10-29T16:50:48.805Z,99561.88
2023-10-29T16:53:22.996Z,99570.59
2023-10-29T16:55:49.504Z,99564.59
2023-10-29T16:58:15.974Z,99557.66
2023-10-29T17:00:46.937Z,99556.97
2023-10-29T17:03:13.543Z,99552.03
2023-10-29T17:05:40.359Z,99530.63
2023-10-29T17:08:07.022Z,99529.91
2023-10-29T17:10:34.200Z,99540.38
2023-10-29T17:13:03.208Z,99540.75
2023-10-29T17:15:29.905Z,99530.53
2023-10-29T17:17:56.509Z,99544.50
2023-10-29T17:20:23.068Z,99536.03
2023-10-29T17:22:49.541Z,99534.41
2023-10-29T17:25:16.062Z,99524.97
2023-10-29T17:27:42.554Z,99532.03
2023-10-29T17:30:09.587Z,99524.25
2023-10-29T17:32:36.132Z,99521.81
2023-10-29T17:35:04.972Z,99526.25
2023-10-29T17:38:08.799Z,99539.44
2023-10-29T17:40:36.416Z,99535.09
2023-10-29T17:43:03.012Z,99545.31
2023-10-29T17:45:29.594Z,99553.78
2023-10-29T17:47:58.183Z,99562.25
2023-10-29T17:50:24.927Z,99568.94
2023-10-29T17:52:51.586Z,99570.59
2023-10-29T17:55:18.075Z,99579.06
2023-10-29T17:57:44.614Z,99582.34
2023-10-29T18:00:11.837Z,99572.59
2023-10-29T18:02:41.940Z,99575.88
2023-10-29T18:05:11.488Z,99575.66
2023-10-29T18:07:38.036Z,99577.31
2023-10-29T18:10:04.727Z,99588.38
2023-10-29T18:12:31.285Z,99581.31
2023-10-29T18:14:57.884Z,99570.00
2023-10-29T18:17:24.566Z,99565.69
2023-10-29T18:19:52.214Z,99562.97
2023-10-29T18:22:18.706Z,99557.78
2023-10-29T18:24:45.223Z,99540.50
2023-10-29T18:27:14.586Z,99530.97
2023-10-29T18:29:41.279Z,99560.25
2023-10-29T18:32:07.841Z,99555.09
2023-10-29T18:34:35.574Z,99563.56
2023-10-29T18:37:02.144Z,99571.19
2023-10-29T18:39:28.759Z,99600.47
2023-10-29T18:41:55.362Z,99584.97
2023-10-29T18:44:23.054Z,99561.69
2023-10-29T18:46:49.975Z,99540.97
2023-10-29T18:49:16.494Z,99544.72
2023-10-29T18:51:42.972Z,99537.94
2023-10-29T18:54:09.514Z,99547.56
2023-10-29T18:56:36.033Z,99560.72
2023-10-29T18:59:02.938Z,99555.53
2023-10-29T19:01:29.514Z,99544.41
2023-10-29T19:03:59.518Z,99529.78
2023-10-29T19:06:26.240Z,99528.88
2023-10-29T19:08:52.756Z,99542.59
2023-10-29T19:11:19.226Z,99554.75
2023-10-29T19:13:45.762Z,99558.03
2023-10-29T19:16:12.282Z,99573.44
2023-10-29T19:18:39.059Z,99586.13
2023-10-29T19:21:10.006Z,99597.44
2023-10-29T19:23:38.425Z,99617.16
2023-10-29T19:26:06.381Z,99607.41
2023-10-29T19:28:32.876Z,99614.34
2023-10-29T19:31:11.499Z,99606.56
2023-10-29T19:33:45.874Z,99621.19
2023-10-29T19:36:14.064Z,99632.44
2023-10-29T19:38:42.133Z,99623.78
2023-10-29T19:41:08.837Z,99638.47
2023-10-29T19:43:35.345Z,99657.59
2023-10-29T19:46:02.067Z,99655.72
2023-10-29T19:48:30.288Z,99664.22
2023-10-29T19:50:59.106Z,99657.28
2023-10-29T19:53:29.040Z,99631.16
2023-10-29T19:55:56.697Z,99611.19
2023-10-29T19:58:23.820Z,99567.19
2023-10-29T20:00:51.706Z,99515.44
2023-10-29T20:03:18.637Z,99545.66
2023-10-29T20:05:45.671Z,99586.34
2023-10-29T20:08:12.208Z,99573.41
2023-10-29T20:10:40.014Z,99580.25
2023-10-29T20:13:06.724Z,99563.06
2023-10-29T20:15:35.301Z,99563.06
2023-10-29T20:18:02.901Z,99564.84
2023-10-29T20:20:30.678Z,99578.00
2023-10-29T20:22:58.879Z,99599.66
2023-10-29T20:25:28.922Z,99615.28
2023-10-29T20:27:55.736Z,99593.19
2023-10-29T20:30:24.291Z,99597.50
2023-10-29T20:32:51.423Z,99603.75
2023-10-29T20:35:18.333Z,99604.59
2023-10-29T20:37:44.982Z,99616.56
2023-10-29T20:40:12.353Z,99623.50
2023-10-29T20:42:38.912Z,99633.84
2023-10-29T20:45:05.984Z,99610.56
2023-10-29T20:47:32.533Z,99641.63
2023-10-29T20:49:59.201Z,99629.63
2023-10-29T20:52:25.733Z,99633.13
2023-10-29T20:54:52.301Z,99646.78
2023-10-29T20:57:18.975Z,99665.84
2023-10-29T20:59:45.488Z,99671.25
2023-10-29T21:02:12.024Z,99676.44
2023-10-29T21:04:38.523Z,99676.44
2023-10-29T21:07:05.101Z,99685.09
2023-10-29T21:09:31.588Z,99693.72
2023-10-29T21:11:58.200Z,99691.94
2023-10-29T21:14:24.840Z,99693.81
2023-10-29T21:16:51.468Z,99703.34
2023-10-29T21:19:19.981Z,99686.06
2023-10-29T21:21:48.606Z,99699.13
2023-10-29T21:24:15.373Z,99699.91
2023-10-29T21:26:42.120Z,99701.59
2023-10-29T21:29:08.597Z,99697.25
2023-10-29T21:31:35.140Z,99704.16
2023-10-29T21:34:02.570Z,99719.91
2023-10-29T21:36:29.108Z,99719.91
2023-10-29T21:38:55.681Z,99729.31
2023-10-29T21:41:25.023Z,99721.78
2023-10-29T21:43:51.576Z,99726.25
2023-10-29T21:46:18.120Z,99722.81
2023-10-29T21:48:44.741Z,99743.63
2023-10-29T21:51:11.306Z,99737.50
2023-10-29T21:53:37.867Z,99746.34
2023-10-29T21:56:06.255Z,99743.97
2023-10-29T21:58:33.267Z,99757.00
2023-10-29T22:01:00.199Z,99764.88
2023-10-29T22:03:28.087Z,99762.50
2023-10-29T22:05:58.133Z,99762.63
2023-10-29T22:08:28.665Z,99764.28
2023-10-29T22:10:59.137Z,99763.53
2023-10-29T22:13:26.961Z,99761.19
2023-10-29T22:15:54.185Z,99763.78
2023-10-29T22:18:21.739Z,99759.44
2023-10-29T22:20:48.361Z,99752.72
2023-10-29T22:23:14.969Z,99763.06
2023-10-29T22:25:41.468Z,99755.41
2023-10-29T22:28:08.378Z,99762.38
2023-10-29T22:30:36.011Z,99760.81
2023-10-29T22:33:02.669Z,99766.09
2023-10-29T22:35:29.233Z,99758.34
2023-10-29T22:37:55.730Z,99759.25
2023-10-29T22:40:22.210Z,99763.63
2023-10-29T22:42:49.794Z,99770.56
2023-10-29T22:45:16.378Z,99769.00
2023-10-29T22:47:43.080Z,99759.84
2023-10-29T22:50:09.674Z,99762.53
2023-10-29T22:52:36.171Z,99765.44
2023-10-29T22:55:02.679Z,99775.75
2023-10-29T22:57:29.199Z,99780.22
2023-10-29T22:59:55.773Z,99800.78
2023-10-29T23:02:22.321Z,99800.88
2023-10-29T23:04:48.819Z,99799.25
2023-10-29T23:07:15.301Z,99789.94
2023-10-29T23:09:41.813Z,99787.59
2023-10-29T23:12:09.264Z,99801.34
2023-10-29T23:14:36.176Z,99804.03
2023-10-29T23:17:02.688Z,99801.66
2023-10-29T23:19:29.345Z,99805.19
2023-10-29T23:21:56.016Z,99819.84
2023-10-29T23:24:22.548Z,99830.28
2023-10-29T23:26:49.100Z,99829.47
2023-10-29T23:29:15.688Z,99824.41
2023-10-29T23:31:42.286Z,99821.94
2023-10-29T23:34:08.845Z,99834.97
2023-10-29T23:36:35.547Z,99825.66
2023-10-29T23:39:02.313Z,99818.84
2023-10-29T23:41:28.834Z,99830.19
2023-10-29T23:43:55.336Z,99845.00
2023-10-29T23:46:22.065Z,99844.91
2023-10-29T23:48:48.648Z,99845.69
2023-10-29T23:51:15.206Z,99849.94
2023-10-29T23:53:41.783Z,99841.38
2023-10-29T23:56:08.289Z,99833.63
2023-10-29T23:58:34.795Z,99840.53
